createdAt,value
2022-08-03T00:00:21.292Z,22.67
2022-08-03T00:04:37.207Z,22.47
2022-08-03T00:08:53.192Z,22.59
2022-08-03T00:13:09.270Z,22.52
2022-08-03T00:17:25.193Z,22.35
2022-08-03T00:21:41.644Z,22.28
2022-08-03T00:25:57.855Z,22.24
2022-08-03T00:30:13.873Z,22.07
2022-08-03T00:34:50.890Z,22.01
2022-08-03T00:39:09.022Z,22.12
2022-08-03T00:43:29.499Z,22.19
2022-08-03T00:47:46.382Z,22.19
2022-08-03T00:52:09.516Z,22.15
2022-08-03T00:56:26.719Z,21.88
2022-08-03T01:00:42.653Z,21.75
2022-08-03T01:04:58.746Z,21.83
2022-08-03T01:09:29.114Z,21.68
2022-08-03T01:14:17.877Z,21.72
2022-08-03T01:18:39.068Z,21.57
2022-08-03T01:23:28.888Z,21.54
2022-08-03T01:28:27.000Z,21.65
2022-08-03T01:33:01.669Z,21.65
2022-08-03T01:37:22.579Z,21.74
2022-08-03T01:42:07.631Z,21.46
2022-08-03T01:46:25.383Z,21.44
2022-08-03T01:50:42.661Z,21.28
2022-08-03T01:54:59.019Z,21.26
2022-08-03T01:59:16.691Z,21.20
2022-08-03T02:03:36.736Z,21.09
2022-08-03T02:07:53.101Z,21.23
2022-08-03T02:12:14.155Z,21.25
2022-08-03T02:16:31.332Z,21.42
2022-08-03T02:20:47.350Z,21.46
2022-08-03T02:25:03.476Z,21.30
2022-08-03T02:29:39.947Z,21.41
2022-08-03T02:34:06.783Z,21.54
2022-08-03T02:38:28.296Z,21.41
2022-08-03T02:42:45.548Z,21.52
2022-08-03T02:47:07.649Z,21.16
2022-08-03T02:51:24.018Z,20.96
2022-08-03T02:55:43.114Z,20.93
2022-08-03T03:00:02.143Z,21.13
2022-08-03T03:04:18.944Z,20.99
2022-08-03T03:08:37.139Z,21.01
2022-08-03T03:12:58.159Z,21.07
2022-08-03T03:17:15.472Z,20.93
2022-08-03T03:21:31.945Z,20.92
2022-08-03T03:25:48.665Z,20.92
2022-08-03T03:30:05.375Z,21.05
2022-08-03T03:34:21.589Z,20.89
2022-08-03T03:38:39.090Z,20.76
2022-08-03T03:42:55.068Z,20.78
2022-08-03T03:47:11.146Z,20.73
2022-08-03T03:51:29.303Z,20.88
2022-08-03T03:55:59.418Z,20.75
2022-08-03T04:00:19.689Z,20.70
2022-08-03T04:04:55.303Z,21.03
2022-08-03T04:09:29.848Z,20.97
2022-08-03T04:13:54.996Z,20.95
2022-08-03T04:18:13.880Z,21.73
2022-08-03T04:22:32.696Z,21.95
2022-08-03T04:26:52.604Z,22.20
2022-08-03T04:31:09.065Z,22.33
2022-08-03T04:35:59.823Z,22.33
2022-08-03T04:40:13.651Z,22.42
2022-08-03T04:44:31.396Z,22.49
2022-08-03T04:48:47.658Z,22.61
2022-08-03T04:53:05.328Z,22.46
2022-08-03T04:57:22.073Z,22.52
2022-08-03T05:01:42.237Z,22.60
2022-08-03T05:06:09.428Z,22.45
2022-08-03T05:10:27.843Z,22.37
2022-08-03T05:14:43.977Z,22.28
2022-08-03T05:19:00.096Z,21.94
2022-08-03T05:23:16.270Z,22.23
2022-08-03T05:27:32.260Z,22.33
2022-08-03T05:31:48.360Z,22.32
2022-08-03T05:36:04.770Z,22.54
2022-08-03T05:40:20.803Z,22.64
2022-08-03T05:44:38.882Z,22.87
2022-08-03T05:48:54.860Z,22.95
2022-08-03T05:53:10.995Z,23.19
2022-08-03T05:57:27.175Z,23.44
2022-08-03T06:01:43.136Z,23.08
2022-08-03T06:06:00.377Z,23.02
2022-08-03T06:10:36.725Z,23.08
2022-08-03T06:14:52.822Z,23.50
2022-08-03T06:19:08.831Z,23.78
2022-08-03T06:23:53.374Z,23.83
2022-08-03T06:28:00.802Z,24.05
2022-08-03T06:32:17.246Z,23.77
2022-08-03T06:36:33.753Z,23.94
2022-08-03T06:40:50.964Z,24.10
2022-08-03T06:45:09.164Z,24.28
2022-08-03T06:49:25.414Z,24.25
2022-08-03T06:53:41.505Z,24.65
2022-08-03T06:57:59.968Z,24.95
2022-08-03T07:02:19.888Z,25.32
2022-08-03T07:06:37.531Z,25.47
2022-08-03T07:10:53.513Z,25.70
2022-08-03T07:15:20.099Z,26.00
2022-08-03T07:19:37.214Z,26.34
2022-08-03T07:23:53.254Z,26.45
2022-08-03T07:28:09.213Z,25.66
2022-08-03T07:32:26.174Z,26.16
2022-08-03T07:36:42.167Z,26.64
2022-08-03T07:40:58.157Z,26.81
2022-08-03T07:45:16.612Z,26.67
2022-08-03T07:49:32.964Z,27.45
2022-08-03T07:53:48.956Z,27.50
2022-08-03T07:58:12.690Z,26.28
2022-08-03T08:02:28.705Z,27.21
2022-08-03T08:06:44.880Z,26.63
2022-08-03T08:11:01.021Z,27.09
2022-08-03T08:15:17.176Z,27.13
2022-08-03T08:19:33.173Z,27.57
2022-08-03T08:23:57.894Z,27.55
2022-08-03T08:28:30.387Z,28.09
2022-08-03T08:32:50.205Z,28.04
2022-08-03T08:37:06.212Z,28.22
2022-08-03T08:41:22.244Z,28.61
2022-08-03T08:45:38.645Z,28.34
2022-08-03T08:50:09.183Z,28.76
2022-08-03T08:54:27.076Z,28.82
2022-08-03T08:58:54.788Z,28.41
2022-08-03T09:03:11.688Z,29.14
2022-08-03T09:07:38.515Z,29.62
2022-08-03T09:12:01.069Z,29.03
2022-08-03T09:16:24.900Z,29.46
2022-08-03T09:20:41.007Z,29.97
2022-08-03T09:25:22.771Z,29.92
2022-08-03T09:29:34.976Z,29.51
2022-08-03T09:33:51.072Z,29.54
2022-08-03T09:38:28.648Z,29.65
2022-08-03T09:42:57.400Z,30.08
2022-08-03T09:47:15.923Z,30.43
2022-08-03T09:51:32.788Z,29.83
2022-08-03T09:56:35.119Z,30.35
2022-08-03T10:01:07.711Z,30.00
2022-08-03T10:05:44.662Z,30.51
2022-08-03T10:10:31.715Z,30.73
2022-08-03T10:14:39.762Z,30.47
2022-08-03T10:18:57.770Z,30.34
2022-08-03T10:23:15.088Z,30.67
2022-08-03T10:27:40.486Z,31.20
2022-08-03T10:31:59.064Z,31.27
2022-08-03T10:36:16.571Z,31.04
2022-08-03T10:40:48.176Z,31.32
2022-08-03T10:45:13.167Z,31.70
2022-08-03T10:49:33.820Z,31.88
2022-08-03T10:53:54.869Z,32.59
2022-08-03T10:58:11.675Z,32.32
2022-08-03T11:03:06.860Z,32.45
2022-08-03T11:07:24.194Z,32.64
2022-08-03T11:11:45.217Z,33.20
2022-08-03T11:16:06.661Z,34.01
2022-08-03T11:20:47.319Z,33.24
2022-08-03T11:25:04.629Z,34.01
2022-08-03T11:29:32.649Z,33.06
2022-08-03T11:34:11.361Z,33.67
2022-08-03T11:38:27.349Z,34.03
2022-08-03T11:42:50.477Z,33.88
2022-08-03T11:47:06.527Z,34.37
2022-08-03T11:51:28.332Z,34.23
2022-08-03T11:55:49.098Z,33.92
2022-08-03T12:00:21.245Z,34.66
2022-08-03T12:05:01.438Z,35.23
2022-08-03T12:09:17.563Z,35.57
2022-08-03T12:14:36.671Z,36.03
2022-08-03T12:18:24.544Z,36.43
2022-08-03T12:22:41.544Z,37.05
2022-08-03T12:27:00.110Z,37.36
2022-08-03T12:31:17.549Z,37.93
2022-08-03T12:35:33.556Z,38.27
2022-08-03T12:40:02.566Z,38.54
2022-08-03T12:44:31.591Z,38.64
2022-08-03T12:49:01.748Z,38.86
2022-08-03T12:53:30.819Z,38.33
2022-08-03T12:57:47.130Z,38.18
2022-08-03T13:02:09.456Z,38.55
2022-08-03T13:06:26.569Z,38.92
2022-08-03T13:10:44.081Z,38.11
2022-08-03T13:15:01.160Z,37.30
2022-08-03T13:19:17.271Z,37.92
2022-08-03T13:23:33.379Z,38.10
2022-08-03T13:28:04.478Z,36.72
2022-08-03T13:32:23.282Z,36.30
2022-08-03T13:37:07.430Z,35.33
2022-08-03T13:41:15.541Z,36.22
2022-08-03T13:45:32.193Z,36.69
2022-08-03T13:49:54.327Z,36.32
2022-08-03T13:54:19.834Z,36.11
2022-08-03T13:58:35.807Z,36.26
2022-08-03T14:02:52.236Z,35.81
2022-08-03T14:07:08.289Z,36.73
2022-08-03T14:11:24.253Z,36.52
2022-08-03T14:16:00.295Z,36.27
2022-08-03T14:20:38.020Z,36.72
2022-08-03T14:24:54.067Z,37.16
2022-08-03T14:29:10.082Z,37.55
2022-08-03T14:33:26.350Z,37.48
2022-08-03T14:37:42.405Z,36.83
2022-08-03T14:41:58.346Z,37.31
2022-08-03T14:46:14.518Z,37.08
2022-08-03T14:50:41.628Z,36.91
2022-08-03T14:55:01.306Z,36.62
2022-08-03T14:59:17.398Z,37.06
2022-08-03T15:03:33.434Z,37.12
2022-08-03T15:07:49.518Z,37.59
2022-08-03T15:12:06.764Z,37.75
2022-08-03T15:16:26.594Z,37.64
2022-08-03T15:20:47.242Z,36.61
2022-08-03T15:26:31.582Z,36.28
2022-08-03T15:30:08.893Z,35.84
2022-08-03T15:34:16.723Z,36.66
2022-08-03T15:38:32.784Z,36.06
2022-08-03T15:42:48.792Z,36.88
2022-08-03T15:47:04.828Z,36.56
2022-08-03T15:51:20.918Z,35.94
2022-08-03T15:55:36.890Z,35.53
2022-08-03T15:59:53.105Z,35.28
2022-08-03T16:04:09.555Z,35.18
2022-08-03T16:08:25.850Z,35.26
2022-08-03T16:12:42.344Z,35.06
2022-08-03T16:17:00.641Z,34.64
2022-08-03T16:21:19.392Z,35.33
2022-08-03T16:25:36.238Z,35.56
2022-08-03T16:29:52.448Z,35.73
2022-08-03T16:34:08.404Z,35.61
2022-08-03T16:38:24.675Z,34.89
2022-08-03T16:42:40.829Z,35.17
2022-08-03T16:46:57.060Z,35.13
2022-08-03T16:51:14.899Z,35.00
2022-08-03T16:55:49.151Z,35.15
2022-08-03T17:00:08.188Z,35.21
2022-08-03T17:04:24.614Z,35.31
2022-08-03T17:08:40.639Z,35.19
2022-08-03T17:12:56.689Z,35.07
2022-08-03T17:17:21.163Z,35.02
2022-08-03T17:21:40.079Z,34.97
2022-08-03T17:26:04.230Z,34.80
2022-08-03T17:30:21.400Z,34.63
2022-08-03T17:34:44.467Z,34.41
2022-08-03T17:39:00.792Z,34.43
2022-08-03T17:44:13.018Z,34.11
2022-08-03T17:47:57.542Z,33.99
2022-08-03T17:52:28.663Z,33.59
2022-08-03T17:56:59.937Z,33.26
2022-08-03T18:02:35.688Z,32.76
2022-08-03T18:06:56.291Z,32.23
2022-08-03T18:11:16.479Z,32.18
2022-08-03T18:15:42.701Z,31.95
2022-08-03T18:20:03.428Z,31.54
2022-08-03T18:24:25.823Z,31.26
2022-08-03T18:28:44.236Z,30.98
2022-08-03T18:34:16.561Z,30.67
2022-08-03T18:37:52.073Z,30.62
2022-08-03T18:42:08.551Z,30.17
2022-08-03T18:46:50.741Z,29.79
2022-08-03T18:51:28.578Z,29.67
2022-08-03T18:56:11.154Z,29.23
2022-08-03T19:00:34.185Z,29.20
2022-08-03T19:05:09.882Z,29.02
2022-08-03T19:09:36.199Z,28.92
2022-08-03T19:13:59.358Z,28.72
2022-08-03T19:18:20.774Z,28.65
2022-08-03T19:22:39.904Z,28.40
2022-08-03T19:27:02.649Z,28.07
2022-08-03T19:31:18.738Z,28.31
2022-08-03T19:35:54.600Z,28.02
2022-08-03T19:40:12.882Z,27.79
2022-08-03T19:44:33.255Z,27.84
2022-08-03T19:49:15.863Z,27.48
2022-08-03T19:53:37.233Z,27.48
2022-08-03T19:58:02.499Z,27.46
2022-08-03T20:02:25.718Z,27.21
2022-08-03T20:06:44.109Z,27.22
2022-08-03T20:11:04.285Z,27.06
2022-08-03T20:15:31.156Z,26.94
2022-08-03T20:19:52.761Z,26.64
2022-08-03T20:24:23.302Z,26.44
2022-08-03T20:28:50.644Z,26.24
2022-08-03T20:33:07.713Z,26.34
2022-08-03T20:37:23.755Z,26.08
2022-08-03T20:41:41.149Z,25.86
2022-08-03T20:45:59.098Z,25.84
2022-08-03T20:50:33.346Z,25.83
2022-08-03T20:54:51.479Z,25.75
2022-08-03T20:59:15.204Z,25.84
2022-08-03T21:03:40.755Z,25.58
2022-08-03T21:08:07.471Z,25.60
2022-08-03T21:12:35.054Z,25.39
2022-08-03T21:16:54.425Z,25.21
2022-08-03T21:21:13.982Z,25.11
2022-08-03T21:25:34.397Z,25.03
2022-08-03T21:29:53.267Z,25.03
2022-08-03T21:34:10.102Z,25.17
2022-08-03T21:38:29.828Z,25.11
2022-08-03T21:42:46.383Z,24.94
2022-08-03T21:47:02.453Z,24.88
2022-08-03T21:51:20.072Z,24.70
2022-08-03T21:55:38.120Z,24.71
2022-08-03T21:59:56.724Z,24.65
2022-08-03T22:04:45.836Z,24.29
2022-08-03T22:08:51.795Z,24.36
2022-08-03T22:13:07.887Z,24.41
2022-08-03T22:17:55.937Z,24.44
2022-08-03T22:22:06.186Z,24.32
2022-08-03T22:26:32.174Z,24.16
2022-08-03T22:30:51.908Z,24.03
2022-08-03T22:35:11.246Z,24.08
2022-08-03T22:39:31.319Z,23.99
2022-08-03T22:43:47.759Z,24.02
2022-08-03T22:48:05.870Z,23.96
2022-08-03T22:52:23.666Z,23.90
2022-08-03T22:56:40.314Z,23.83
2022-08-03T23:01:03.216Z,23.93
2022-08-03T23:06:00.548Z,23.87
2022-08-03T23:10:14.018Z,23.79
2022-08-03T23:14:33.222Z,23.70
2022-08-03T23:18:50.995Z,23.53
2022-08-03T23:23:07.031Z,23.48
2022-08-03T23:27:24.757Z,23.27
2022-08-03T23:31:43.050Z,23.48
2022-08-03T23:36:28.420Z,23.30
2022-08-03T23:40:41.728Z,23.50
2022-08-03T23:45:05.406Z,23.19
2022-08-03T23:49:22.171Z,23.13
2022-08-03T23:54:00.144Z,22.91
2022-08-03T23:58:48.497Z,22.87
